Time;durP1;ratioP1;P1;durP2;ratioP2;P2;SDS_P1;SDS_P2;PMS_P1;PMS_P2;Temp;Humidity;BMP_temperature;BMP_pressure;BME280_temperature;BME280_humidity;BME280_pressure;Samples;Min_cycle;Max_cycle;Signal;HPM_P1;HPM_P2
2023/03/09 00:00:41;;;;;;;8.87;7.97;;;;;;;;;;5032287;28;20224;-47
2023/03/09 00:03:15;;;;;;;9.60;8.20;;;;;;;;;;5032387;28;20243;-47
2023/03/09 00:05:43;;;;;;;8.97;8.07;;;;;;;;;;5032519;28;20203;-48
2023/03/09 00:08:09;;;;;;;8.87;8.00;;;;;;;;;;5032494;28;20860;-48
2023/03/09 00:10:38;;;;;;;8.57;7.67;;;;;;;;;;5032354;28;20443;-48
2023/03/09 00:13:04;;;;;;;8.53;7.73;;;;;;;;;;5032111;28;20497;-48
2023/03/09 00:15:30;;;;;;;8.40;7.43;;;;;;;;;;5032070;28;20479;-48
2023/03/09 00:17:56;;;;;;;8.73;7.73;;;;;;;;;;5032483;28;20207;-47
2023/03/09 00:20:24;;;;;;;9.23;8.30;;;;;;;;;;5032270;28;20439;-48
2023/03/09 00:22:51;;;;;;;8.40;7.60;;;;;;;;;;5032429;28;20562;-47
2023/03/09 00:25:18;;;;;;;8.63;7.73;;;;;;;;;;5031841;28;20455;-47
2023/03/09 00:27:47;;;;;;;9.23;8.20;;;;;;;;;;5032199;28;20859;-48
2023/03/09 00:30:13;;;;;;;7.73;7.00;;;;;;;;;;5032319;28;20494;-47
2023/03/09 00:32:39;;;;;;;8.43;7.57;;;;;;;;;;5031920;28;20440;-47
2023/03/09 00:35:06;;;;;;;8.47;7.57;;;;;;;;;;5032085;28;20475;-47
2023/03/09 00:37:32;;;;;;;7.97;7.17;;;;;;;;;;5031723;28;20800;-47
2023/03/09 00:39:59;;;;;;;8.40;7.50;;;;;;;;;;5032293;28;20526;-47
2023/03/09 00:42:25;;;;;;;8.13;7.33;;;;;;;;;;5032149;28;20200;-48
2023/03/09 00:44:51;;;;;;;7.80;7.00;;;;;;;;;;5032844;28;20527;-49
2023/03/09 00:47:18;;;;;;;8.23;7.43;;;;;;;;;;5031896;28;21007;-48
2023/03/09 00:49:44;;;;;;;8.20;7.37;;;;;;;;;;5031648;28;20446;-48
2023/03/09 00:52:10;;;;;;;9.43;7.80;;;;;;;;;;5032056;28;20801;-49
2023/03/09 00:54:36;;;;;;;7.63;6.93;;;;;;;;;;5031907;28;20212;-49
2023/03/09 00:57:04;;;;;;;8.80;7.73;;;;;;;;;;5031985;28;20463;-48
2023/03/09 00:59:30;;;;;;;8.23;7.37;;;;;;;;;;5031751;28;21033;-48
2023/03/09 01:01:56;;;;;;;7.63;6.83;;;;;;;;;;5031759;28;20469;-48
2023/03/09 01:04:22;;;;;;;8.20;7.50;;;;;;;;;;5031727;28;20566;-49
2023/03/09 01:06:48;;;;;;;7.80;7.00;;;;;;;;;;5035645;28;20722;-48
2023/03/09 01:09:14;;;;;;;7.77;6.50;;;;;;;;;;5032386;28;20322;-52
2023/03/09 01:11:40;;;;;;;7.67;6.90;;;;;;;;;;5036016;28;20686;-48
2023/03/09 01:14:07;;;;;;;7.53;6.77;;;;;;;;;;5035945;28;20922;-49
2023/03/09 01:16:33;;;;;;;8.63;7.27;;;;;;;;;;5035693;28;21059;-49
2023/03/09 01:18:59;;;;;;;7.33;6.63;;;;;;;;;;5035951;28;20435;-48
2023/03/09 01:21:25;;;;;;;8.13;7.30;;;;;;;;;;5035919;28;20437;-47
2023/03/09 01:23:51;;;;;;;8.30;7.40;;;;;;;;;;5035632;28;20251;-48
2023/03/09 01:26:18;;;;;;;8.47;7.57;;;;;;;;;;5035420;28;20447;-48
2023/03/09 01:28:44;;;;;;;7.67;6.87;;;;;;;;;;5035387;28;20434;-48
2023/03/09 01:31:12;;;;;;;7.60;6.80;;;;;;;;;;5035548;28;20439;-48
2023/03/09 01:33:38;;;;;;;8.20;7.40;;;;;;;;;;5035182;28;20435;-47
2023/03/09 01:36:05;;;;;;;7.87;7.07;;;;;;;;;;5035143;28;20997;-47
2023/03/09 01:38:31;;;;;;;7.50;6.70;;;;;;;;;;5035186;28;20526;-48
2023/03/09 01:40:57;;;;;;;7.80;7.07;;;;;;;;;;5035309;28;20543;-48
2023/03/09 01:43:34;;;;;;;7.97;7.17;;;;;;;;;;5035103;28;20197;-48
2023/03/09 01:46:18;;;;;;;7.53;6.77;;;;;;;;;;5035136;28;20806;-47
2023/03/09 01:48:46;;;;;;;7.70;7.00;;;;;;;;;;5034942;28;20427;-46
2023/03/09 01:51:12;;;;;;;8.00;7.20;;;;;;;;;;5035117;28;20443;-47
2023/03/09 01:53:38;;;;;;;7.30;6.60;;;;;;;;;;5035063;28;20439;-47
2023/03/09 01:56:04;;;;;;;8.50;7.10;;;;;;;;;;5034936;28;20316;-47
2023/03/09 01:58:31;;;;;;;6.80;6.10;;;;;;;;;;5034784;28;20526;-47
2023/03/09 02:00:57;;;;;;;8.17;6.47;;;;;;;;;;5034831;28;20893;-47
2023/03/09 02:03:25;;;;;;;7.13;6.43;;;;;;;;;;5034545;28;20474;-46
2023/03/09 02:05:56;;;;;;;7.50;6.60;;;;;;;;;;5034088;28;20438;-46
2023/03/09 02:08:23;;;;;;;7.77;6.70;;;;;;;;;;5033721;28;20526;-46
2023/03/09 02:10:51;;;;;;;7.43;6.63;;;;;;;;;;5033785;28;20431;-47
2023/03/09 02:13:19;;;;;;;8.13;7.30;;;;;;;;;;5033511;28;20917;-46
2023/03/09 02:15:45;;;;;;;7.37;6.67;;;;;;;;;;5033424;28;20485;-46
2023/03/09 02:18:11;;;;;;;7.03;6.33;;;;;;;;;;5033571;28;20447;-46
2023/03/09 02:20:39;;;;;;;7.80;7.00;;;;;;;;;;5033577;28;20259;-46
2023/03/09 02:23:11;;;;;;;8.03;7.23;;;;;;;;;;5033597;28;20431;-46
2023/03/09 02:25:40;;;;;;;7.73;6.93;;;;;;;;;;5033598;28;20505;-47
2023/03/09 02:28:08;;;;;;;7.27;6.57;;;;;;;;;;5033609;28;20435;-46
2023/03/09 02:30:36;;;;;;;7.70;6.90;;;;;;;;;;5033419;28;20792;-47
2023/03/09 02:33:03;;;;;;;8.03;7.23;;;;;;;;;;5034181;28;20796;-46
2023/03/09 02:35:29;;;;;;;8.17;6.93;;;;;;;;;;5033978;28;20849;-45
2023/03/09 02:37:55;;;;;;;7.40;6.17;;;;;;;;;;5034310;28;20427;-47
2023/03/09 02:40:24;;;;;;;7.03;6.33;;;;;;;;;;5034205;28;20292;-46
2023/03/09 02:42:51;;;;;;;7.60;6.90;;;;;;;;;;5034053;28;20208;-46
2023/03/09 02:45:21;;;;;;;8.63;6.83;;;;;;;;;;5034279;28;20443;-46
2023/03/09 02:47:47;;;;;;;7.30;6.60;;;;;;;;;;5034093;28;20444;-46
2023/03/09 02:50:13;;;;;;;7.97;7.17;;;;;;;;;;5034078;28;20440;-47
2023/03/09 02:52:39;;;;;;;7.83;7.03;;;;;;;;;;5033859;28;20501;-46
2023/03/09 02:55:05;;;;;;;7.47;6.37;;;;;;;;;;5033835;28;20846;-47
2023/03/09 02:57:32;;;;;;;7.33;6.63;;;;;;;;;;5033867;28;20447;-46
2023/03/09 02:59:58;;;;;;;8.03;7.23;;;;;;;;;;5033784;28;20443;-46
2023/03/09 03:02:25;;;;;;;8.03;7.23;;;;;;;;;;5033771;28;20870;-46
2023/03/09 03:04:51;;;;;;;7.90;7.10;;;;;;;;;;5033569;28;20303;-47
2023/03/09 03:07:17;;;;;;;8.53;7.57;;;;;;;;;;5033561;28;20475;-47
2023/03/09 03:09:43;;;;;;;7.43;6.63;;;;;;;;;;5033602;28;20205;-47
2023/03/09 03:12:09;;;;;;;7.53;6.73;;;;;;;;;;5033402;28;20497;-46
2023/03/09 03:14:35;;;;;;;8.83;7.93;;;;;;;;;;5033349;28;20443;-46
2023/03/09 03:17:02;;;;;;;9.23;8.33;;;;;;;;;;5033331;28;20216;-46
2023/03/09 03:19:29;;;;;;;8.57;7.67;;;;;;;;;;5033424;28;20225;-46
2023/03/09 03:21:55;;;;;;;8.53;7.67;;;;;;;;;;5033443;28;20498;-46
2023/03/09 03:24:21;;;;;;;8.80;7.90;;;;;;;;;;5033493;28;20490;-46
2023/03/09 03:26:47;;;;;;;9.03;8.13;;;;;;;;;;5033124;28;20427;-46
2023/03/09 03:29:13;;;;;;;9.23;8.30;;;;;;;;;;5032727;28;20236;-46
2023/03/09 03:31:39;;;;;;;8.27;7.37;;;;;;;;;;5033072;28;20300;-46
2023/03/09 03:34:05;;;;;;;8.93;8.03;;;;;;;;;;5032976;28;20535;-46
2023/03/09 03:36:32;;;;;;;10.47;8.87;;;;;;;;;;5032807;28;20228;-46
2023/03/09 03:38:58;;;;;;;9.67;8.67;;;;;;;;;;5033102;28;20204;-46
2023/03/09 03:41:24;;;;;;;9.73;8.63;;;;;;;;;;5032876;28;20435;-46
2023/03/09 03:43:50;;;;;;;10.10;8.80;;;;;;;;;;5032858;28;20439;-46
2023/03/09 03:46:16;;;;;;;8.97;8.07;;;;;;;;;;5032987;28;20211;-47
2023/03/09 03:48:42;;;;;;;9.57;8.53;;;;;;;;;;5032775;28;20439;-47
2023/03/09 03:51:08;;;;;;;9.13;8.23;;;;;;;;;;5032778;28;20486;-47
2023/03/09 03:53:36;;;;;;;9.73;8.73;;;;;;;;;;5032675;28;20207;-47
2023/03/09 03:56:03;;;;;;;10.23;9.13;;;;;;;;;;5032612;28;20486;-47
2023/03/09 03:58:30;;;;;;;9.60;8.60;;;;;;;;;;5032490;28;20937;-47
2023/03/09 04:00:56;;;;;;;9.70;8.80;;;;;;;;;;5032490;28;21020;-47
2023/03/09 04:03:22;;;;;;;10.07;9.07;;;;;;;;;;5032258;28;20997;-48
2023/03/09 04:05:48;;;;;;;9.30;8.40;;;;;;;;;;5032501;28;20442;-47
2023/03/09 04:08:14;;;;;;;10.10;9.00;;;;;;;;;;5032452;28;20212;-48
2023/03/09 04:10:41;;;;;;;10.93;9.83;;;;;;;;;;5032743;28;20197;-47
2023/03/09 04:13:07;;;;;;;10.43;8.77;;;;;;;;;;5032712;28;20200;-46
2023/03/09 04:15:34;;;;;;;11.17;9.37;;;;;;;;;;5032186;28;20476;-47
2023/03/09 04:18:00;;;;;;;9.30;8.40;;;;;;;;;;5032257;28;20846;-47
2023/03/09 04:20:26;;;;;;;10.40;9.27;;;;;;;;;;5032280;28;20450;-47
2023/03/09 04:22:52;;;;;;;11.43;9.70;;;;;;;;;;5032236;28;20439;-46
2023/03/09 04:25:18;;;;;;;10.47;9.37;;;;;;;;;;5032205;28;20466;-45
2023/03/09 04:27:45;;;;;;;10.20;9.20;;;;;;;;;;5032083;28;20486;-47
2023/03/09 04:30:12;;;;;;;10.07;9.10;;;;;;;;;;5032515;28;20466;-47
2023/03/09 04:32:38;;;;;;;11.57;9.70;;;;;;;;;;5032098;28;20451;-48
2023/03/09 04:35:04;;;;;;;12.33;9.40;;;;;;;;;;5031929;28;20483;-47
2023/03/09 04:37:30;;;;;;;11.43;9.70;;;;;;;;;;5031932;28;20247;-48
2023/03/09 04:39:56;;;;;;;11.47;10.07;;;;;;;;;;5032125;28;20444;-48
2023/03/09 04:42:22;;;;;;;11.07;9.97;;;;;;;;;;5031914;28;20689;-48
2023/03/09 04:44:50;;;;;;;12.00;10.30;;;;;;;;;;5032265;28;20201;-45
2023/03/09 04:47:16;;;;;;;11.37;10.17;;;;;;;;;;5031912;28;20211;-46
2023/03/09 04:49:42;;;;;;;11.00;9.90;;;;;;;;;;5031795;28;20443;-47
2023/03/09 04:52:08;;;;;;;12.27;10.77;;;;;;;;;;5031862;28;20251;-47
2023/03/09 04:54:34;;;;;;;10.97;9.87;;;;;;;;;;5031748;28;20915;-47
2023/03/09 04:57:00;;;;;;;11.70;10.47;;;;;;;;;;5031846;28;20471;-47
2023/03/09 04:59:26;;;;;;;12.37;10.63;;;;;;;;;;5031708;28;20859;-46
2023/03/09 05:01:53;;;;;;;12.70;11.30;;;;;;;;;;5031712;28;20815;-46
2023/03/09 05:04:19;;;;;;;11.53;10.37;;;;;;;;;;5031624;28;20482;-45
2023/03/09 05:06:47;;;;;;;10.63;9.53;;;;;;;;;;5031908;28;20428;-47
2023/03/09 05:09:13;;;;;;;11.20;10.10;;;;;;;;;;5031956;28;20877;-47
2023/03/09 05:11:39;;;;;;;12.43;10.83;;;;;;;;;;5031750;28;20532;-47
2023/03/09 05:14:05;;;;;;;11.90;10.57;;;;;;;;;;5031538;28;20526;-47
2023/03/09 05:16:31;;;;;;;12.17;10.23;;;;;;;;;;5031460;28;20228;-47
2023/03/09 05:18:58;;;;;;;11.50;10.30;;;;;;;;;;5031598;28;20498;-46
2023/03/09 05:21:24;;;;;;;12.70;11.30;;;;;;;;;;5031639;28;20243;-46
2023/03/09 05:23:50;;;;;;;11.70;10.30;;;;;;;;;;5031589;28;20481;-47
2023/03/09 05:26:16;;;;;;;11.97;10.60;;;;;;;;;;5031631;28;20436;-48
2023/03/09 05:28:42;;;;;;;12.77;11.37;;;;;;;;;;5031482;28;20679;-47
2023/03/09 05:31:09;;;;;;;12.37;10.97;;;;;;;;;;5031541;28;20476;-47
2023/03/09 05:33:35;;;;;;;12.53;11.17;;;;;;;;;;5031394;28;20200;-47
2023/03/09 05:36:02;;;;;;;12.67;11.00;;;;;;;;;;5031396;28;20485;-47
2023/03/09 05:38:28;;;;;;;12.13;10.83;;;;;;;;;;5031453;28;20447;-47
2023/03/09 05:40:54;;;;;;;11.37;10.20;;;;;;;;;;5031429;28;20501;-47
2023/03/09 05:43:20;;;;;;;12.97;10.90;;;;;;;;;;5031406;28;20243;-48
2023/03/09 05:45:53;;;;;;;13.00;10.97;;;;;;;;;;5031124;28;20444;-47
2023/03/09 05:48:19;;;;;;;12.33;11.00;;;;;;;;;;5031413;28;20197;-46
2023/03/09 05:50:45;;;;;;;12.67;10.93;;;;;;;;;;5031297;28;20922;-47
2023/03/09 05:53:12;;;;;;;12.47;11.03;;;;;;;;;;5035090;28;20220;-47
2023/03/09 05:55:38;;;;;;;12.17;10.97;;;;;;;;;;5034764;28;20225;-47
2023/03/09 05:58:04;;;;;;;12.37;10.33;;;;;;;;;;5034717;28;20435;-46
2023/03/09 06:00:30;;;;;;;11.60;10.40;;;;;;;;;;5034625;28;20582;-46
2023/03/09 06:02:56;;;;;;;11.40;9.80;;;;;;;;;;5034596;28;20235;-47
2023/03/09 06:05:22;;;;;;;11.20;9.80;;;;;;;;;;5034743;28;20284;-46
2023/03/09 06:07:51;;;;;;;12.10;10.67;;;;;;;;;;5034472;28;20531;-46
2023/03/09 06:10:18;;;;;;;11.30;10.10;;;;;;;;;;5034578;28;20291;-46
2023/03/09 06:12:44;;;;;;;12.77;10.93;;;;;;;;;;5034443;28;20451;-47
2023/03/09 06:15:11;;;;;;;11.40;10.13;;;;;;;;;;5034065;28;20847;-46
2023/03/09 06:17:36;;;;;;;11.67;10.23;;;;;;;;;;5033072;28;20685;-47
2023/03/09 06:20:03;;;;;;;11.07;9.87;;;;;;;;;;5034052;28;20697;-46
2023/03/09 06:22:30;;;;;;;10.70;9.60;;;;;;;;;;5034358;28;20611;-47
2023/03/09 06:24:56;;;;;;;11.57;10.20;;;;;;;;;;5034369;28;20806;-46
2023/03/09 06:27:23;;;;;;;12.00;10.70;;;;;;;;;;5034356;28;20731;-46
2023/03/09 06:29:49;;;;;;;11.27;9.87;;;;;;;;;;5034042;28;20220;-46
2023/03/09 06:32:15;;;;;;;10.80;9.53;;;;;;;;;;5034186;28;20432;-47
2023/03/09 06:34:41;;;;;;;11.13;9.93;;;;;;;;;;5034022;28;20208;-46
2023/03/09 06:37:07;;;;;;;10.83;9.73;;;;;;;;;;5034008;28;20266;-46
2023/03/09 06:39:33;;;;;;;11.50;10.30;;;;;;;;;;5033982;28;20266;-46
2023/03/09 06:41:59;;;;;;;11.20;10.00;;;;;;;;;;5033889;28;20197;-46
2023/03/09 06:44:26;;;;;;;11.00;9.90;;;;;;;;;;5034076;28;20507;-50
2023/03/09 06:46:52;;;;;;;11.03;9.93;;;;;;;;;;5033786;28;20287;-47
2023/03/09 06:49:18;;;;;;;12.67;10.73;;;;;;;;;;5033697;28;20534;-47
2023/03/09 06:51:44;;;;;;;11.67;10.47;;;;;;;;;;5033445;28;20223;-47
2023/03/09 06:54:10;;;;;;;11.27;10.00;;;;;;;;;;5034052;28;20200;-47
2023/03/09 06:56:36;;;;;;;12.13;10.57;;;;;;;;;;5033626;28;20570;-47
2023/03/09 06:59:02;;;;;;;11.80;10.00;;;;;;;;;;5033719;28;20514;-47
2023/03/09 07:01:30;;;;;;;12.27;10.33;;;;;;;;;;5033672;28;20776;-47
2023/03/09 07:03:56;;;;;;;10.17;9.17;;;;;;;;;;5032715;28;20606;-47
2023/03/09 07:06:22;;;;;;;12.83;10.93;;;;;;;;;;5033465;28;20869;-47
2023/03/09 07:08:48;;;;;;;11.57;9.83;;;;;;;;;;5033354;28;20435;-47
2023/03/09 07:11:14;;;;;;;10.63;9.53;;;;;;;;;;5033612;28;20479;-47
2023/03/09 07:13:40;;;;;;;11.37;10.17;;;;;;;;;;5033331;28;20443;-47
2023/03/09 07:16:06;;;;;;;10.33;9.27;;;;;;;;;;5033390;28;20234;-46
2023/03/09 07:18:34;;;;;;;10.57;9.47;;;;;;;;;;5033147;28;20651;-48
2023/03/09 07:21:01;;;;;;;11.30;10.10;;;;;;;;;;5033326;28;20476;-49
2023/03/09 07:23:27;;;;;;;10.17;9.17;;;;;;;;;;5033272;28;20538;-47
2023/03/09 07:25:53;;;;;;;10.57;9.37;;;;;;;;;;5033314;28;20503;-48
2023/03/09 07:28:19;;;;;;;10.50;9.30;;;;;;;;;;5033420;28;20675;-47
2023/03/09 07:30:45;;;;;;;9.90;8.90;;;;;;;;;;5032975;28;20259;-49
2023/03/09 07:33:11;;;;;;;10.80;9.37;;;;;;;;;;5033284;28;20193;-48
2023/03/09 07:35:39;;;;;;;10.27;9.20;;;;;;;;;;5033109;28;21236;-48
2023/03/09 07:38:05;;;;;;;9.80;8.77;;;;;;;;;;5033242;28;20203;-48
2023/03/09 07:40:31;;;;;;;10.20;9.20;;;;;;;;;;5033018;28;20444;-49
2023/03/09 07:42:57;;;;;;;10.43;9.33;;;;;;;;;;5033192;28;20223;-48
2023/03/09 07:45:23;;;;;;;9.77;8.77;;;;;;;;;;5033023;28;20435;-49
2023/03/09 07:47:49;;;;;;;13.60;9.80;;;;;;;;;;5032787;28;20197;-48
2023/03/09 07:50:15;;;;;;;10.03;8.60;;;;;;;;;;5032855;28;20443;-47
2023/03/09 07:52:43;;;;;;;10.10;9.10;;;;;;;;;;5030421;28;20485;-46
2023/03/09 07:55:11;;;;;;;10.50;9.30;;;;;;;;;;5032427;28;20438;-46
2023/03/09 07:57:38;;;;;;;9.80;8.70;;;;;;;;;;5032009;28;20586;-47
2023/03/09 08:00:12;;;;;;;9.30;8.30;;;;;;;;;;5032296;28;20455;-49
2023/03/09 08:02:38;;;;;;;9.97;8.90;;;;;;;;;;5032226;28;20435;-48
2023/03/09 08:05:05;;;;;;;9.70;8.43;;;;;;;;;;5032062;28;20475;-48
2023/03/09 08:07:31;;;;;;;9.27;8.33;;;;;;;;;;5032541;28;20547;-48
2023/03/09 08:09:58;;;;;;;9.03;8.13;;;;;;;;;;5032339;28;21000;-48
2023/03/09 08:12:24;;;;;;;9.07;8.27;;;;;;;;;;5032265;28;20713;-48
2023/03/09 08:14:50;;;;;;;8.27;7.47;;;;;;;;;;5031534;28;20428;-48
2023/03/09 08:17:16;;;;;;;9.40;8.40;;;;;;;;;;5031976;28;20231;-48
2023/03/09 08:19:42;;;;;;;9.73;8.30;;;;;;;;;;5032027;28;20435;-48
2023/03/09 08:22:08;;;;;;;8.87;7.97;;;;;;;;;;5032118;28;20439;-49
2023/03/09 08:24:34;;;;;;;10.47;8.40;;;;;;;;;;5031915;28;20212;-49
2023/03/09 08:27:03;;;;;;;8.90;7.70;;;;;;;;;;5031952;28;20807;-49
2023/03/09 08:29:29;;;;;;;8.80;7.90;;;;;;;;;;5031880;28;20205;-49
2023/03/09 08:31:55;;;;;;;8.70;7.80;;;;;;;;;;5031740;28;20799;-48
2023/03/09 08:34:21;;;;;;;8.07;7.27;;;;;;;;;;5032038;28;20439;-48
2023/03/09 08:36:47;;;;;;;8.10;7.30;;;;;;;;;;5031710;28;20220;-48
2023/03/09 08:39:13;;;;;;;8.77;7.87;;;;;;;;;;5031978;28;20432;-48
2023/03/09 08:41:39;;;;;;;9.73;7.60;;;;;;;;;;5031706;28;20458;-48
2023/03/09 08:44:07;;;;;;;8.57;7.67;;;;;;;;;;5031980;28;20280;-50
2023/03/09 08:46:33;;;;;;;8.20;7.37;;;;;;;;;;5031805;28;20201;-49
2023/03/09 08:49:00;;;;;;;8.37;7.33;;;;;;;;;;5031860;28;20440;-48
2023/03/09 08:51:28;;;;;;;9.47;8.03;;;;;;;;;;5032075;28;20247;-49
2023/03/09 08:53:55;;;;;;;8.77;7.70;;;;;;;;;;5031989;28;20508;-49
2023/03/09 08:56:21;;;;;;;8.60;7.53;;;;;;;;;;5031945;28;20530;-49
2023/03/09 08:58:47;;;;;;;8.40;7.57;;;;;;;;;;5031606;28;20436;-49
2023/03/09 09:01:15;;;;;;;8.37;7.33;;;;;;;;;;5031705;28;20455;-47
2023/03/09 09:03:41;;;;;;;9.03;8.13;;;;;;;;;;5031420;28;20476;-47
2023/03/09 09:06:08;;;;;;;7.97;7.17;;;;;;;;;;5031516;28;20628;-47
2023/03/09 09:08:34;;;;;;;8.00;7.20;;;;;;;;;;5031687;28;20227;-48
2023/03/09 09:11:00;;;;;;;9.60;8.67;;;;;;;;;;5031938;28;20452;-47
2023/03/09 09:13:26;;;;;;;8.57;7.33;;;;;;;;;;5031968;28;20207;-48
2023/03/09 09:15:53;;;;;;;7.90;7.10;;;;;;;;;;5031701;28;20478;-47
2023/03/09 09:18:20;;;;;;;8.87;7.03;;;;;;;;;;5031890;28;20448;-47
2023/03/09 09:20:47;;;;;;;8.67;7.33;;;;;;;;;;5029437;28;20800;-46
2023/03/09 09:23:13;;;;;;;8.33;6.67;;;;;;;;;;5031261;28;20435;-47
2023/03/09 09:25:39;;;;;;;8.10;7.30;;;;;;;;;;5031235;28;20447;-47
2023/03/09 09:28:05;;;;;;;8.37;7.20;;;;;;;;;;5035234;28;20424;-47
2023/03/09 09:30:32;;;;;;;8.00;6.93;;;;;;;;;;5035382;28;20941;-47
2023/03/09 09:32:58;;;;;;;9.33;7.57;;;;;;;;;;5035672;28;20228;-48
2023/03/09 09:35:26;;;;;;;8.63;7.40;;;;;;;;;;5035217;28;20472;-47
2023/03/09 09:37:54;;;;;;;8.50;7.57;;;;;;;;;;5035108;28;20446;-47
2023/03/09 09:40:20;;;;;;;7.97;7.17;;;;;;;;;;5035047;28;20442;-47
2023/03/09 09:42:46;;;;;;;8.03;7.23;;;;;;;;;;5034862;28;20949;-48
2023/03/09 09:45:27;;;;;;;8.20;7.37;;;;;;;;;;5035073;28;20450;-48
2023/03/09 09:47:55;;;;;;;8.73;7.80;;;;;;;;;;5034894;28;20443;-48
2023/03/09 09:50:21;;;;;;;9.13;7.80;;;;;;;;;;5034875;28;20851;-47
2023/03/09 09:52:51;;;;;;;8.77;7.87;;;;;;;;;;5034652;28;21003;-48
2023/03/09 09:55:20;;;;;;;8.47;7.57;;;;;;;;;;5035044;28;20482;-48
2023/03/09 09:57:46;;;;;;;8.60;7.70;;;;;;;;;;5034539;28;20497;-49
2023/03/09 10:00:14;;;;;;;8.63;7.73;;;;;;;;;;5034715;28;20443;-48
2023/03/09 10:02:44;;;;;;;8.67;7.40;;;;;;;;;;5034652;28;20434;-51
2023/03/09 10:05:14;;;;;;;8.47;7.43;;;;;;;;;;5034966;28;20443;-48
2023/03/09 10:07:41;;;;;;;9.17;8.27;;;;;;;;;;5035249;28;20446;-47
2023/03/09 10:10:11;;;;;;;8.27;7.47;;;;;;;;;;5034946;28;21034;-47
2023/03/09 10:12:38;;;;;;;8.67;7.13;;;;;;;;;;5034510;28;20821;-47
2023/03/09 10:15:05;;;;;;;8.50;7.60;;;;;;;;;;5034745;28;20538;-46
2023/03/09 10:17:34;;;;;;;8.73;7.83;;;;;;;;;;5034641;28;20528;-46
2023/03/09 10:20:02;;;;;;;9.03;8.10;;;;;;;;;;5034854;28;20926;-46
2023/03/09 10:22:28;;;;;;;8.40;7.60;;;;;;;;;;5030637;28;20476;-46
2023/03/09 10:24:55;;;;;;;8.67;7.80;;;;;;;;;;5032698;28;20432;-46
2023/03/09 10:27:27;;;;;;;8.67;7.77;;;;;;;;;;5034276;28;20439;-46
2023/03/09 10:29:57;;;;;;;9.17;7.87;;;;;;;;;;5033974;28;20455;-47
2023/03/09 10:32:27;;;;;;;8.63;7.73;;;;;;;;;;5034439;28;20890;-47
2023/03/09 10:34:54;;;;;;;9.03;8.13;;;;;;;;;;5034399;28;20435;-46
2023/03/09 10:37:23;;;;;;;8.50;7.60;;;;;;;;;;5032276;28;20475;-46
2023/03/09 10:39:49;;;;;;;9.27;8.00;;;;;;;;;;5032548;28;20452;-46
2023/03/09 10:42:18;;;;;;;8.70;7.73;;;;;;;;;;5034405;28;20486;-47
2023/03/09 10:44:48;;;;;;;9.83;7.50;;;;;;;;;;5034864;28;20205;-45
2023/03/09 10:47:14;;;;;;;9.13;8.07;;;;;;;;;;5034131;28;20519;-46
2023/03/09 10:49:40;;;;;;;10.03;8.57;;;;;;;;;;5033851;28;20981;-47
2023/03/09 10:52:07;;;;;;;8.70;7.80;;;;;;;;;;5033982;28;20201;-49
2023/03/09 10:54:36;;;;;;;9.00;8.03;;;;;;;;;;5033711;28;20780;-49
2023/03/09 10:57:03;;;;;;;8.97;8.07;;;;;;;;;;5033776;28;20533;-48
2023/03/09 10:59:29;;;;;;;9.83;7.77;;;;;;;;;;5033613;28;20436;-49
2023/03/09 11:01:59;;;;;;;11.30;9.60;;;;;;;;;;5033826;28;20456;-49
2023/03/09 11:04:34;;;;;;;10.80;9.00;;;;;;;;;;5033745;28;20459;-49
2023/03/09 11:07:01;;;;;;;9.50;8.43;;;;;;;;;;5033554;28;20929;-49
2023/03/09 11:09:33;;;;;;;9.93;8.67;;;;;;;;;;5033682;28;20940;-47
2023/03/09 11:12:09;;;;;;;9.43;7.77;;;;;;;;;;5033687;28;20459;-50
2023/03/09 11:14:41;;;;;;;9.53;8.53;;;;;;;;;;5033462;28;20435;-49
2023/03/09 11:17:24;;;;;;;10.27;8.73;;;;;;;;;;5033548;28;20495;-49
2023/03/09 11:19:50;;;;;;;8.87;7.97;;;;;;;;;;5033565;28;20436;-49
2023/03/09 11:22:17;;;;;;;12.27;9.80;;;;;;;;;;5033691;28;20538;-47
2023/03/09 11:24:44;;;;;;;11.17;9.70;;;;;;;;;;5033494;28;20204;-49
2023/03/09 11:27:12;;;;;;;9.67;8.23;;;;;;;;;;5033565;28;20437;-47
2023/03/09 11:29:42;;;;;;;10.33;9.23;;;;;;;;;;5033408;28;20445;-48
2023/03/09 11:32:10;;;;;;;10.87;9.20;;;;;;;;;;5033592;28;20440;-48
2023/03/09 11:34:37;;;;;;;9.50;8.47;;;;;;;;;;5033308;28;20868;-49
2023/03/09 11:37:07;;;;;;;10.40;8.73;;;;;;;;;;5033207;28;20463;-49
2023/03/09 11:39:34;;;;;;;10.53;8.23;;;;;;;;;;5033396;28;20443;-49
2023/03/09 11:42:01;;;;;;;10.67;9.47;;;;;;;;;;5033082;28;20934;-49
2023/03/09 11:44:31;;;;;;;11.40;9.33;;;;;;;;;;5033315;28;21041;-49
2023/03/09 11:46:58;;;;;;;10.20;9.17;;;;;;;;;;5032965;28;20478;-47
2023/03/09 11:49:27;;;;;;;10.63;9.53;;;;;;;;;;5032378;28;20442;-49
2023/03/09 11:51:53;;;;;;;11.57;9.80;;;;;;;;;;5032795;28;20945;-49
2023/03/09 11:54:24;;;;;;;11.03;9.50;;;;;;;;;;5032813;28;20835;-49
2023/03/09 11:56:50;;;;;;;10.50;9.40;;;;;;;;;;5032559;28;20479;-49
2023/03/09 11:59:18;;;;;;;10.53;9.43;;;;;;;;;;5032633;28;20485;-49
2023/03/09 12:01:47;;;;;;;10.97;9.20;;;;;;;;;;5032759;28;20509;-49
2023/03/09 12:04:15;;;;;;;11.17;9.47;;;;;;;;;;5032697;28;20467;-49
2023/03/09 12:06:48;;;;;;;10.90;9.13;;;;;;;;;;5032572;28;20470;-47
2023/03/09 12:09:19;;;;;;;10.17;8.87;;;;;;;;;;5032868;28;20543;-48
2023/03/09 12:11:49;;;;;;;10.70;9.60;;;;;;;;;;5032518;28;20826;-48
2023/03/09 12:14:20;;;;;;;10.57;8.90;;;;;;;;;;5032476;28;20523;-48
2023/03/09 12:16:50;;;;;;;10.00;8.70;;;;;;;;;;5014796;28;20483;-48
2023/03/09 12:19:17;;;;;;;11.83;8.83;;;;;;;;;;5032593;28;20474;-48
2023/03/09 12:21:45;;;;;;;12.03;10.13;;;;;;;;;;5032251;28;20456;-49
2023/03/09 12:24:26;;;;;;;11.53;10.33;;;;;;;;;;5032676;28;20435;-49
2023/03/09 12:27:00;;;;;;;10.53;9.43;;;;;;;;;;5032143;28;20440;-49
2023/03/09 12:29:29;;;;;;;11.20;9.20;;;;;;;;;;5032169;28;20797;-49
2023/03/09 12:32:14;;;;;;;13.57;9.97;;;;;;;;;;5032484;28;20497;-48
2023/03/09 12:34:41;;;;;;;10.03;8.83;;;;;;;;;;5032210;28;20423;-48
2023/03/09 12:37:25;;;;;;;11.63;9.77;;;;;;;;;;5032221;28;20490;-49
2023/03/09 12:39:59;;;;;;;11.57;9.77;;;;;;;;;;5032257;28;20412;-48
2023/03/09 12:42:35;;;;;;;11.63;8.33;;;;;;;;;;5032425;28;20440;-48
2023/03/09 12:45:03;;;;;;;10.97;9.20;;;;;;;;;;5032568;28;20435;-48
2023/03/09 12:47:36;;;;;;;11.13;9.53;;;;;;;;;;5032351;28;20434;-48
2023/03/09 12:50:03;;;;;;;11.10;9.73;;;;;;;;;;5032187;28;20546;-48
2023/03/09 12:52:33;;;;;;;11.43;9.80;;;;;;;;;;5032177;28;20439;-47
2023/03/09 12:55:03;;;;;;;10.80;9.70;;;;;;;;;;5031937;28;20910;-47
2023/03/09 12:57:30;;;;;;;11.10;9.90;;;;;;;;;;5032022;28;21024;-48
2023/03/09 12:59:56;;;;;;;12.70;10.17;;;;;;;;;;5032081;28;20465;-47
2023/03/09 13:02:26;;;;;;;10.33;9.23;;;;;;;;;;5034993;28;20455;-47
2023/03/09 13:05:11;;;;;;;10.27;9.17;;;;;;;;;;5035915;28;20969;-51
2023/03/09 13:07:37;;;;;;;12.07;9.87;;;;;;;;;;5036089;28;20420;-48
2023/03/09 13:10:05;;;;;;;10.10;8.83;;;;;;;;;;5036126;28;20482;-48
2023/03/09 13:12:32;;;;;;;10.17;9.07;;;;;;;;;;5035986;28;20455;-47
2023/03/09 13:15:06;;;;;;;9.97;8.93;;;;;;;;;;5035991;28;20443;-47
2023/03/09 13:17:37;;;;;;;10.60;9.57;;;;;;;;;;5035832;28;20479;-47
2023/03/09 13:20:14;;;;;;;10.13;9.03;;;;;;;;;;5036064;28;20435;-48
2023/03/09 13:22:40;;;;;;;11.43;9.87;;;;;;;;;;5035859;28;20794;-49
2023/03/09 13:25:28;;;;;;;12.77;9.67;;;;;;;;;;5035944;28;20436;-47
2023/03/09 13:28:02;;;;;;;12.07;10.50;;;;;;;;;;5035686;28;20427;-49
2023/03/09 13:30:28;;;;;;;13.20;10.20;;;;;;;;;;5035862;28;20509;-50
2023/03/09 13:33:03;;;;;;;10.97;9.50;;;;;;;;;;5035561;28;20546;-48
2023/03/09 13:35:32;;;;;;;13.07;11.30;;;;;;;;;;5035655;28;20439;-48
2023/03/09 13:37:59;;;;;;;11.67;10.00;;;;;;;;;;5035662;28;20458;-47
2023/03/09 13:40:26;;;;;;;11.57;10.10;;;;;;;;;;5035609;28;20443;-49
2023/03/09 13:42:53;;;;;;;11.10;10.00;;;;;;;;;;5035540;28;20432;-48
2023/03/09 13:45:21;;;;;;;11.07;9.87;;;;;;;;;;5035643;28;20475;-48
2023/03/09 13:47:51;;;;;;;10.77;9.67;;;;;;;;;;5035421;28;20455;-47
2023/03/09 13:50:18;;;;;;;11.50;10.20;;;;;;;;;;5035771;28;20451;-49
2023/03/09 13:52:59;;;;;;;11.93;10.70;;;;;;;;;;5035383;28;20436;-47
2023/03/09 13:55:27;;;;;;;11.27;10.17;;;;;;;;;;5035474;28;20432;-47
2023/03/09 13:57:53;;;;;;;11.83;10.53;;;;;;;;;;5034999;28;20893;-47
2023/03/09 14:00:22;;;;;;;13.60;12.33;;;;;;;;;;5035068;28;20448;-47
2023/03/09 14:02:48;;;;;;;10.93;9.80;;;;;;;;;;5034782;28;20493;-47
2023/03/09 14:05:18;;;;;;;10.93;9.60;;;;;;;;;;5035122;28;20803;-47
2023/03/09 14:07:45;;;;;;;10.27;9.07;;;;;;;;;;5034978;28;21152;-46
2023/03/09 14:10:18;;;;;;;11.63;10.43;;;;;;;;;;5035134;28;20427;-48
2023/03/09 14:12:44;;;;;;;11.47;9.97;;;;;;;;;;5034114;28;20640;-47
2023/03/09 14:15:15;;;;;;;12.50;11.20;;;;;;;;;;5034639;28;20933;-48
2023/03/09 14:17:43;;;;;;;13.30;10.37;;;;;;;;;;5034564;28;20471;-47
2023/03/09 14:20:14;;;;;;;12.67;11.37;;;;;;;;;;5034772;28;20444;-47
2023/03/09 14:22:40;;;;;;;13.37;11.33;;;;;;;;;;5034695;28;20440;-47
2023/03/09 14:25:20;;;;;;;12.63;11.13;;;;;;;;;;5034745;28;20461;-47
2023/03/09 14:27:46;;;;;;;12.53;11.07;;;;;;;;;;5034612;28;20192;-46
2023/03/09 14:30:43;;;;;;;13.80;12.40;;;;;;;;;;5034510;28;20868;-48
2023/03/09 14:33:24;;;;;;;12.23;10.93;;;;;;;;;;5034581;28;20946;-46
2023/03/09 14:35:50;;;;;;;12.90;11.50;;;;;;;;;;5027851;28;20975;-46